Time;durP1;ratioP1;P1;durP2;ratioP2;P2;SDS_P1;SDS_P2;PMS_P1;PMS_P2;Temp;Humidity;BMP_temperature;BMP_pressure;BME280_temperature;BME280_humidity;BME280_pressure;Samples;Min_cycle;Max_cycle;Signal;HPM_P1;HPM_P2
2022/07/19 00:01:35;;;;;;;4.30;2.72;;;23.10;72.00;;;;;;5074578;28;20059;-76
2022/07/19 00:04:01;;;;;;;6.00;2.75;;;23.00;72.00;;;;;;5074435;28;20103;-76
2022/07/19 00:06:26;;;;;;;5.45;2.90;;;23.00;72.00;;;;;;5074351;28;20031;-76
2022/07/19 00:08:52;;;;;;;5.40;2.85;;;23.00;72.00;;;;;;5074120;28;20025;-76
2022/07/19 00:11:18;;;;;;;6.47;2.50;;;22.90;72.00;;;;;;5073445;28;20028;-76
2022/07/19 00:13:43;;;;;;;6.30;2.65;;;22.90;72.10;;;;;;5074247;28;20025;-76
2022/07/19 00:16:09;;;;;;;7.00;2.55;;;22.90;72.70;;;;;;5073835;28;20033;-76
2022/07/19 00:18:35;;;;;;;4.82;2.40;;;22.90;73.30;;;;;;5073998;28;20024;-76
2022/07/19 00:21:00;;;;;;;5.32;2.80;;;22.90;73.20;;;;;;5056209;28;20039;-76
2022/07/19 00:23:26;;;;;;;4.65;2.53;;;22.80;72.70;;;;;;5074311;28;20029;-76
2022/07/19 00:25:52;;;;;;;6.75;3.05;;;22.80;72.60;;;;;;5072648;28;20089;-76
2022/07/19 00:28:17;;;;;;;6.85;3.03;;;22.80;72.60;;;;;;5073978;28;20029;-76
2022/07/19 00:30:43;;;;;;;7.93;2.83;;;22.80;72.90;;;;;;5074015;28;20348;-76
2022/07/19 00:33:09;;;;;;;8.15;3.25;;;22.80;73.50;;;;;;5073904;28;20024;-76
2022/07/19 00:35:36;;;;;;;6.65;3.05;;;22.70;73.50;;;;;;5073947;28;20051;-75
2022/07/19 00:38:13;;;;;;;7.80;3.50;;;22.70;73.70;;;;;;5073940;28;20032;-76
2022/07/19 00:40:40;;;;;;;5.97;3.22;;;22.70;73.70;;;;;;5073758;28;20025;-75
2022/07/19 00:43:06;;;;;;;5.13;2.88;;;22.60;73.60;;;;;;5073887;28;20032;-75
2022/07/19 00:45:32;;;;;;;5.93;2.72;;;22.60;73.50;;;;;;5073434;28;20357;-76
2022/07/19 00:47:58;;;;;;;7.70;2.75;;;22.60;73.50;;;;;;5073812;28;20082;-76
2022/07/19 00:50:24;;;;;;;5.45;2.42;;;22.60;73.70;;;;;;5074064;28;20036;-76
2022/07/19 00:52:52;;;;;;;6.43;2.90;;;22.50;73.80;;;;;;5073752;28;20020;-76
2022/07/19 00:55:19;;;;;;;5.68;2.45;;;22.50;73.70;;;;;;5073613;28;20056;-75
2022/07/19 00:57:45;;;;;;;8.38;2.63;;;22.40;73.60;;;;;;5073292;28;20031;-76
2022/07/19 01:00:12;;;;;;;5.45;2.08;;;22.40;73.60;;;;;;5073440;28;20036;-75
2022/07/19 01:02:38;;;;;;;8.93;2.70;;;22.40;73.70;;;;;;5073457;28;20029;-75
2022/07/19 01:05:06;;;;;;;6.13;2.15;;;22.30;73.70;;;;;;5073727;28;20390;-76
2022/07/19 01:07:32;;;;;;;5.28;2.60;;;22.30;73.90;;;;;;5073410;28;20029;-75
2022/07/19 01:09:57;;;;;;;4.43;2.63;;;22.30;74.00;;;;;;5073683;28;20023;-75
2022/07/19 01:12:23;;;;;;;6.00;2.75;;;22.20;74.10;;;;;;5073298;28;20473;-76
2022/07/19 01:14:55;;;;;;;5.70;2.67;;;22.20;74.10;;;;;;5073539;28;20424;-75
2022/07/19 01:17:20;;;;;;;4.32;2.38;;;22.20;74.10;;;;;;5073528;28;20115;-75
2022/07/19 01:19:46;;;;;;;6.13;2.78;;;22.20;74.10;;;;;;5073566;28;20060;-76
2022/07/19 01:22:11;;;;;;;6.47;2.13;;;22.10;74.80;;;;;;5073900;28;20020;-75
2022/07/19 01:24:37;;;;;;;8.15;2.70;;;22.10;74.30;;;;;;5077268;28;20042;-75
2022/07/19 01:27:03;;;;;;;5.72;2.28;;;22.00;74.40;;;;;;5077450;28;20082;-75
2022/07/19 01:29:28;;;;;;;4.53;2.40;;;22.00;74.60;;;;;;5077604;28;20091;-75
2022/07/19 01:31:54;;;;;;;5.22;2.50;;;22.00;74.80;;;;;;5077232;28;20052;-75
2022/07/19 01:34:19;;;;;;;5.07;2.60;;;21.90;74.80;;;;;;5075893;28;20536;-75
2022/07/19 01:36:45;;;;;;;5.82;2.00;;;21.90;74.90;;;;;;5077404;28;20150;-75
2022/07/19 01:39:11;;;;;;;5.47;2.40;;;21.90;75.00;;;;;;5075592;28;20035;-75
2022/07/19 01:41:36;;;;;;;6.97;2.20;;;21.80;74.90;;;;;;5074960;28;20028;-75
2022/07/19 01:44:02;;;;;;;6.32;2.20;;;21.80;74.80;;;;;;5076747;28;20021;-76
2022/07/19 01:46:28;;;;;;;5.78;2.35;;;21.80;74.80;;;;;;5076279;28;20486;-76
2022/07/19 01:48:53;;;;;;;4.88;2.25;;;21.80;74.60;;;;;;5075283;28;20028;-76
2022/07/19 01:51:19;;;;;;;4.05;1.90;;;21.80;74.60;;;;;;5076640;28;20107;-76
2022/07/19 01:53:44;;;;;;;5.50;2.60;;;21.70;74.50;;;;;;5076614;28;20504;-76
2022/07/19 01:56:10;;;;;;;4.75;2.47;;;21.70;74.60;;;;;;5076957;28;20032;-76
2022/07/19 01:58:36;;;;;;;10.95;2.90;;;21.70;74.70;;;;;;5058798;28;20031;-76
2022/07/19 02:01:02;;;;;;;5.82;3.30;;;21.70;74.70;;;;;;5059023;28;20028;-76
2022/07/19 02:03:27;;;;;;;7.13;3.10;;;21.70;74.80;;;;;;5076581;28;20107;-76
2022/07/19 02:05:53;;;;;;;7.50;3.20;;;21.70;74.90;;;;;;5076850;28;20435;-76
2022/07/19 02:08:19;;;;;;;6.53;3.22;;;21.70;74.80;;;;;;5058978;28;20033;-75
2022/07/19 02:10:44;;;;;;;8.38;2.70;;;21.70;74.80;;;;;;5058787;28;20149;-75
2022/07/19 02:13:10;;;;;;;8.48;2.65;;;21.60;74.70;;;;;;5076572;28;20024;-75
2022/07/19 02:15:35;;;;;;;5.10;2.40;;;21.60;74.60;;;;;;5076567;28;20380;-76
2022/07/19 02:18:01;;;;;;;8.02;2.50;;;21.60;74.60;;;;;;5076362;28;20032;-75
2022/07/19 02:20:27;;;;;;;7.80;2.55;;;21.60;74.50;;;;;;5076645;28;20021;-75
2022/07/19 02:22:53;;;;;;;8.43;2.83;;;21.60;74.40;;;;;;5058252;28;20036;-76
2022/07/19 02:25:19;;;;;;;5.20;2.63;;;21.50;74.40;;;;;;5076492;28;20032;-75
2022/07/19 02:27:44;;;;;;;4.90;2.60;;;21.60;74.40;;;;;;5076278;28;20028;-75
2022/07/19 02:30:11;;;;;;;6.78;2.53;;;21.50;74.40;;;;;;5073544;28;20048;-75
2022/07/19 02:32:37;;;;;;;5.55;2.17;;;21.50;74.40;;;;;;5075774;28;20028;-75
2022/07/19 02:35:05;;;;;;;5.40;2.47;;;21.50;74.50;;;;;;5074410;28;20024;-76
2022/07/19 02:37:31;;;;;;;6.38;2.78;;;21.50;74.60;;;;;;5067250;28;20025;-76
2022/07/19 02:39:57;;;;;;;7.43;2.92;;;21.50;74.80;;;;;;5074087;28;20526;-76
2022/07/19 02:42:23;;;;;;;7.35;3.47;;;21.30;74.80;;;;;;5075584;28;20033;-76
2022/07/19 02:44:48;;;;;;;7.38;3.17;;;21.40;75.10;;;;;;5075738;28;20032;-76
2022/07/19 02:47:14;;;;;;;6.28;2.88;;;21.40;75.20;;;;;;5075880;28;20032;-76
2022/07/19 02:49:40;;;;;;;7.65;3.10;;;21.40;75.40;;;;;;5076026;28;20103;-76
2022/07/19 02:52:05;;;;;;;9.25;2.55;;;21.40;75.50;;;;;;5075813;28;20032;-76
2022/07/19 02:54:31;;;;;;;7.60;2.78;;;21.40;75.70;;;;;;5075606;28;20135;-76
2022/07/19 02:56:57;;;;;;;5.00;2.75;;;21.30;75.90;;;;;;5075919;28;20041;-75
2022/07/19 02:59:23;;;;;;;4.10;2.13;;;21.30;76.10;;;;;;5075643;28;20033;-76
2022/07/19 03:01:49;;;;;;;7.35;3.03;;;21.30;76.40;;;;;;5075585;28;20515;-76
2022/07/19 03:04:14;;;;;;;5.65;2.42;;;21.20;76.40;;;;;;5075401;28;20017;-76
2022/07/19 03:06:40;;;;;;;6.20;2.65;;;21.20;76.70;;;;;;5075924;28;20009;-76
2022/07/19 03:09:06;;;;;;;5.75;2.45;;;21.20;76.90;;;;;;5075694;28;20091;-76
2022/07/19 03:11:31;;;;;;;4.93;2.35;;;21.20;77.00;;;;;;5075258;28;20028;-76
2022/07/19 03:13:57;;;;;;;7.88;2.67;;;21.20;77.20;;;;;;5075277;28;20492;-76
2022/07/19 03:16:22;;;;;;;5.70;2.42;;;21.10;77.30;;;;;;5057274;28;20024;-75
2022/07/19 03:18:48;;;;;;;4.90;2.50;;;21.10;77.40;;;;;;5075474;28;20031;-76
2022/07/19 03:21:13;;;;;;;5.63;2.28;;;21.10;77.70;;;;;;5075057;28;20036;-76
2022/07/19 03:23:39;;;;;;;5.20;2.30;;;21.10;77.80;;;;;;5075159;28;20055;-75
2022/07/19 03:26:05;;;;;;;5.13;2.50;;;21.00;77.90;;;;;;5057419;28;20123;-75
2022/07/19 03:28:31;;;;;;;4.78;2.47;;;21.00;78.10;;;;;;5075318;28;20056;-75
2022/07/19 03:30:57;;;;;;;6.88;3.08;;;21.00;78.30;;;;;;5074891;28;20379;-76
2022/07/19 03:33:23;;;;;;;5.18;2.65;;;21.00;78.30;;;;;;5075302;28;20105;-75
2022/07/19 03:35:48;;;;;;;8.80;2.58;;;21.00;78.40;;;;;;5075216;28;20064;-76
2022/07/19 03:38:15;;;;;;;5.80;2.42;;;20.90;78.40;;;;;;5075046;28;20476;-76
2022/07/19 03:40:41;;;;;;;5.28;2.15;;;21.00;78.40;;;;;;5075077;28;20036;-76
2022/07/19 03:43:06;;;;;;;5.82;3.05;;;21.00;78.50;;;;;;5075168;28;20028;-76
2022/07/19 03:45:33;;;;;;;7.10;2.65;;;20.90;78.40;;;;;;5074158;28;20054;-76
2022/07/19 03:47:59;;;;;;;4.85;2.45;;;20.90;78.50;;;;;;5074624;28;20380;-75
2022/07/19 03:50:24;;;;;;;5.90;2.20;;;20.90;78.60;;;;;;5074679;28;20031;-75
2022/07/19 03:52:50;;;;;;;5.65;2.25;;;20.90;78.60;;;;;;5074891;28;20039;-75
2022/07/19 03:55:15;;;;;;;6.05;2.35;;;20.90;78.70;;;;;;5074739;28;20059;-75
2022/07/19 03:57:41;;;;;;;9.48;3.00;;;20.90;79.30;;;;;;5074844;28;20445;-75
2022/07/19 04:00:07;;;;;;;6.35;2.28;;;20.90;78.70;;;;;;5056908;28;20119;-75
2022/07/19 04:02:33;;;;;;;4.28;2.33;;;20.90;78.60;;;;;;5074748;28;20028;-75
2022/07/19 04:04:58;;;;;;;5.45;2.42;;;20.90;78.60;;;;;;5074457;28;20037;-75
2022/07/19 04:07:24;;;;;;;8.48;2.60;;;20.90;78.60;;;;;;5074363;28;20415;-75
2022/07/19 04:09:50;;;;;;;4.53;2.15;;;20.90;78.50;;;;;;5074314;28;20024;-75
2022/07/19 04:12:15;;;;;;;6.03;2.47;;;20.90;78.50;;;;;;5074315;28;20020;-76
2022/07/19 04:14:41;;;;;;;5.82;2.90;;;20.90;78.60;;;;;;5056369;28;20046;-75
2022/07/19 04:17:07;;;;;;;5.25;2.45;;;20.90;78.60;;;;;;5073954;28;20032;-75
2022/07/19 04:19:33;;;;;;;5.95;2.10;;;20.90;78.60;;;;;;5074029;28;20036;-75
2022/07/19 04:21:58;;;;;;;6.00;2.55;;;21.00;78.80;;;;;;5055920;28;20036;-75
2022/07/19 04:24:24;;;;;;;10.15;2.33;;;21.00;78.80;;;;;;5056448;28;20036;-75
2022/07/19 04:26:50;;;;;;;4.75;2.53;;;21.00;78.80;;;;;;5073955;28;20484;-75
2022/07/19 04:29:15;;;;;;;6.25;3.05;;;21.00;79.00;;;;;;5056134;28;20484;-75
2022/07/19 04:31:41;;;;;;;8.10;2.67;;;21.00;78.80;;;;;;5056552;28;20033;-75
2022/07/19 04:34:06;;;;;;;7.45;2.05;;;21.00;78.80;;;;;;5073696;28;20024;-75
2022/07/19 04:36:32;;;;;;;7.60;2.30;;;21.10;78.70;;;;;;5073992;28;20032;-75
2022/07/19 04:38:58;;;;;;;5.72;2.40;;;21.10;78.50;;;;;;5073609;28;20040;-75
2022/07/19 04:41:23;;;;;;;6.78;2.60;;;21.10;78.40;;;;;;5073789;28;20054;-75
2022/07/19 04:43:49;;;;;;;5.93;2.30;;;21.10;78.20;;;;;;5073559;28;20048;-75
2022/07/19 04:46:14;;;;;;;6.68;2.33;;;21.10;78.00;;;;;;5073515;28;20031;-76
2022/07/19 04:48:41;;;;;;;5.80;2.45;;;21.10;77.70;;;;;;5073811;28;20078;-75
2022/07/19 04:51:07;;;;;;;4.68;2.40;;;21.20;77.50;;;;;;5073811;28;20048;-75
2022/07/19 04:53:32;;;;;;;9.65;2.05;;;21.20;77.30;;;;;;5070698;28;20098;-76
2022/07/19 04:55:58;;;;;;;5.68;2.60;;;21.20;76.80;;;;;;5065203;28;20045;-75
2022/07/19 04:58:24;;;;;;;11.43;2.65;;;21.20;76.20;;;;;;5070046;28;20115;-75
2022/07/19 05:00:49;;;;;;;12.60;2.17;;;21.30;75.70;;;;;;5063868;28;20039;-75
2022/07/19 05:03:15;;;;;;;11.75;2.30;;;21.30;75.20;;;;;;5069219;28;20028;-75
2022/07/19 05:05:41;;;;;;;8.85;2.80;;;21.40;74.70;;;;;;5061164;28;20385;-75
2022/07/19 05:08:06;;;;;;;17.60;3.60;;;21.40;74.20;;;;;;5052711;28;20492;-75
2022/07/19 05:10:32;;;;;;;9.00;2.17;;;21.50;73.90;;;;;;5052362;28;20021;-75
2022/07/19 05:12:59;;;;;;;12.57;1.92;;;21.50;73.50;;;;;;5052014;28;20044;-75
2022/07/19 05:15:24;;;;;;;6.22;2.42;;;21.50;73.00;;;;;;5053546;28;20429;-75
2022/07/19 05:17:50;;;;;;;8.13;2.40;;;21.50;72.60;;;;;;5053611;28;20025;-75
2022/07/19 05:20:16;;;;;;;6.65;2.25;;;21.60;72.10;;;;;;5053274;28;20037;-76
2022/07/19 05:22:43;;;;;;;7.20;2.08;;;21.60;71.80;;;;;;5053164;28;20477;-75
2022/07/19 05:25:09;;;;;;;7.50;2.15;;;21.70;71.50;;;;;;5052903;28;20033;-76
2022/07/19 05:27:36;;;;;;;6.55;2.22;;;21.70;71.20;;;;;;5068729;28;20492;-76
2022/07/19 05:30:03;;;;;;;5.80;2.10;;;21.70;70.90;;;;;;5053136;28;20060;-75
2022/07/19 05:32:28;;;;;;;5.30;2.13;;;21.80;71.30;;;;;;5051899;28;20021;-75
2022/07/19 05:34:54;;;;;;;5.93;2.45;;;21.80;70.50;;;;;;5053273;28;20044;-75
2022/07/19 05:37:20;;;;;;;9.15;2.15;;;21.90;70.60;;;;;;5053329;28;20040;-75
2022/07/19 05:39:45;;;;;;;5.55;2.33;;;21.90;70.40;;;;;;5053143;28;20037;-76
2022/07/19 05:42:11;;;;;;;7.20;2.05;;;21.90;70.30;;;;;;5051726;28;20060;-76
2022/07/19 05:44:37;;;;;;;8.35;2.22;;;22.00;70.20;;;;;;5053327;28;20037;-76
2022/07/19 05:47:02;;;;;;;7.07;2.38;;;22.00;70.10;;;;;;5052983;28;20029;-76
2022/07/19 05:49:28;;;;;;;10.43;2.67;;;22.10;70.10;;;;;;5051836;28;20389;-76
2022/07/19 05:51:54;;;;;;;6.93;2.58;;;22.10;70.00;;;;;;5053273;28;20501;-76
2022/07/19 05:54:19;;;;;;;7.97;3.15;;;22.10;69.90;;;;;;5052663;28;20090;-76
2022/07/19 05:56:45;;;;;;;7.18;2.67;;;22.20;69.90;;;;;;5057925;28;20502;-76
2022/07/19 05:59:11;;;;;;;12.13;2.80;;;22.20;69.70;;;;;;5072619;28;20029;-76
2022/07/19 06:01:36;;;;;;;10.55;3.13;;;22.20;69.60;;;;;;5072628;28;20051;-76
2022/07/19 06:04:02;;;;;;;9.15;3.13;;;22.30;69.50;;;;;;5073268;28;20037;-76
2022/07/19 06:06:30;;;;;;;10.75;2.78;;;22.30;69.40;;;;;;5072008;28;20094;-76
2022/07/19 06:08:56;;;;;;;10.25;3.08;;;22.40;69.30;;;;;;5072358;28;20032;-76
2022/07/19 06:11:23;;;;;;;10.75;3.85;;;22.40;69.10;;;;;;5057800;28;20036;-76
2022/07/19 06:13:50;;;;;;;7.53;2.97;;;22.50;68.70;;;;;;5076046;28;20028;-76
2022/07/19 06:16:15;;;;;;;9.25;2.90;;;22.50;68.40;;;;;;5075867;28;20476;-76
2022/07/19 06:18:42;;;;;;;9.52;2.90;;;22.50;68.10;;;;;;5075688;28;20036;-76
2022/07/19 06:21:13;;;;;;;9.50;3.60;;;22.60;67.90;;;;;;5075946;28;20020;-76
2022/07/19 06:23:39;;;;;;;9.05;3.75;;;22.60;67.70;;;;;;5068353;28;20024;-76
2022/07/19 06:26:06;;;;;;;8.15;4.22;;;22.70;67.60;;;;;;5075610;28;20475;-76
2022/07/19 06:28:32;;;;;;;7.97;4.05;;;22.80;67.40;;;;;;5075685;28;20063;-76
2022/07/19 06:30:58;;;;;;;10.68;4.85;;;22.80;67.20;;;;;;5075542;28;20025;-76
2022/07/19 06:33:25;;;;;;;7.25;3.97;;;22.90;67.60;;;;;;5075707;28;20031;-76
2022/07/19 06:35:51;;;;;;;7.22;3.47;;;22.90;66.70;;;;;;5075660;28;20024;-76
2022/07/19 06:38:17;;;;;;;10.40;3.90;;;22.90;66.60;;;;;;5041633;28;20384;-76
2022/07/19 06:40:43;;;;;;;8.57;3.13;;;23.00;66.50;;;;;;5055222;28;20083;-76
2022/07/19 06:43:09;;;;;;;9.68;3.70;;;23.10;66.60;;;;;;5055218;28;20546;-76
2022/07/19 06:45:35;;;;;;;10.27;3.50;;;23.10;66.50;;;;;;5055452;28;20057;-76
2022/07/19 06:48:00;;;;;;;10.07;3.97;;;23.20;66.50;;;;;;5055939;28;20060;-76
2022/07/19 06:50:26;;;;;;;7.68;3.70;;;23.20;66.30;;;;;;5055870;28;20470;-76
2022/07/19 06:52:51;;;;;;;8.80;3.63;;;23.30;66.40;;;;;;5055421;28;20118;-76
2022/07/19 06:55:17;;;;;;;6.57;2.95;;;23.30;66.40;;;;;;5055616;28;20485;-76
2022/07/19 06:57:43;;;;;;;8.15;3.28;;;23.40;66.40;;;;;;5055914;28;20052;-76
2022/07/19 07:00:10;;;;;;;7.50;3.60;;;23.40;66.40;;;;;;5055499;28;20481;-76
2022/07/19 07:02:36;;;;;;;9.10;3.20;;;23.50;66.50;;;;;;5055553;28;20362;-76
2022/07/19 07:05:02;;;;;;;9.80;3.17;;;23.50;66.10;;;;;;5055424;28;20081;-76
2022/07/19 07:07:28;;;;;;;7.95;3.33;;;23.60;66.00;;;;;;5055545;28;20394;-76
2022/07/19 07:09:54;;;;;;;5.82;2.88;;;23.60;65.80;;;;;;5055778;28;20162;-76
2022/07/19 07:12:19;;;;;;;10.20;3.80;;;23.70;65.70;;;;;;5070658;28;20053;-76
2022/07/19 07:14:45;;;;;;;9.68;3.85;;;23.70;65.50;;;;;;5065379;28;20216;-76
2022/07/19 07:17:10;;;;;;;6.65;2.80;;;23.80;65.50;;;;;;5074706;28;20028;-76
2022/07/19 07:19:36;;;;;;;6.95;3.05;;;23.80;65.50;;;;;;5075053;28;20024;-76
2022/07/19 07:22:02;;;;;;;5.88;3.03;;;23.90;65.40;;;;;;5071059;28;20024;-76
2022/07/19 07:24:28;;;;;;;8.73;3.05;;;24.00;65.20;;;;;;5075001;28;20016;-76
2022/07/19 07:26:54;;;;;;;7.30;2.17;;;24.00;65.10;;;;;;5074792;28;20051;-76
2022/07/19 07:29:20;;;;;;;7.78;2.35;;;24.10;65.00;;;;;;5075187;28;20028;-76
2022/07/19 07:31:46;;;;;;;10.10;2.95;;;24.10;64.80;;;;;;5075306;28;20028;-76
2022/07/19 07:34:12;;;;;;;8.27;2.60;;;24.20;64.50;;;;;;5074884;28;20017;-75
2022/07/19 07:36:37;;;;;;;5.78;2.42;;;24.30;64.40;;;;;;5074983;28;20052;-75
2022/07/19 07:39:03;;;;;;;7.60;2.65;;;24.40;64.40;;;;;;5075121;28;20021;-75
2022/07/19 07:41:29;;;;;;;8.80;2.40;;;24.50;64.50;;;;;;5074802;28;20146;-76
2022/07/19 07:43:54;;;;;;;13.55;2.83;;;24.60;64.50;;;;;;5074975;28;20032;-73
2022/07/19 07:46:20;;;;;;;6.45;2.50;;;24.60;64.30;;;;;;5074540;28;20032;-76
2022/07/19 07:48:46;;;;;;;7.43;2.50;;;24.70;64.20;;;;;;5056897;28;20068;-75
2022/07/19 07:51:11;;;;;;;13.75;2.38;;;24.80;64.10;;;;;;5056815;28;20032;-76
2022/07/19 07:53:37;;;;;;;6.05;2.58;;;24.80;64.00;;;;;;5074306;28;20090;-76
2022/07/19 07:56:03;;;;;;;10.27;3.30;;;24.90;64.00;;;;;;5074391;28;20476;-76
2022/07/19 07:58:29;;;;;;;6.38;2.42;;;25.00;63.80;;;;;;5056730;28;20044;-76
2022/07/19 08:00:54;;;;;;;8.07;2.80;;;25.10;63.60;;;;;;5053880;28;20036;-76
2022/07/19 08:03:20;;;;;;;7.45;2.80;;;25.20;63.40;;;;;;5074501;28;20029;-76
2022/07/19 08:05:47;;;;;;;7.07;2.38;;;25.30;63.40;;;;;;5056515;28;20505;-76
2022/07/19 08:08:14;;;;;;;8.05;2.33;;;25.30;63.20;;;;;;5056084;28;20048;-76
2022/07/19 08:10:39;;;;;;;5.85;2.30;;;25.40;63.30;;;;;;5056114;28;20039;-76
2022/07/19 08:13:05;;;;;;;7.50;2.53;;;25.50;63.30;;;;;;5074846;28;20021;-76
2022/07/19 08:15:31;;;;;;;6.45;2.35;;;25.60;63.30;;;;;;5074444;28;20028;-76
2022/07/19 08:17:57;;;;;;;8.68;2.35;;;25.70;63.10;;;;;;5074406;28;20028;-80
2022/07/19 08:20:22;;;;;;;8.93;2.50;;;25.80;62.70;;;;;;5055955;28;20028;-78
2022/07/19 08:22:48;;;;;;;9.45;2.13;;;25.80;62.50;;;;;;5039435;28;20040;-78
2022/07/19 08:25:16;;;;;;;7.03;2.47;;;25.90;62.30;;;;;;5055976;28;20070;-79
2022/07/19 08:27:43;;;;;;;5.13;2.38;;;26.00;62.00;;;;;;5036566;28;20025;-78
2022/07/19 08:30:09;;;;;;;10.23;2.10;;;26.20;61.90;;;;;;5055499;28;20464;-78
2022/07/19 08:32:36;;;;;;;6.35;2.35;;;26.20;61.70;;;;;;5055068;28;20025;-76
2022/07/19 08:35:03;;;;;;;6.68;1.75;;;26.30;61.60;;;;;;5073655;28;20036;-78
2022/07/19 08:37:28;;;;;;;8.50;2.30;;;26.40;61.70;;;;;;5056120;28;20115;-78
2022/07/19 08:39:54;;;;;;;11.50;2.50;;;26.50;61.60;;;;;;5055998;28;20445;-77
2022/07/19 08:42:20;;;;;;;6.20;1.92;;;26.50;61.40;;;;;;5039122;28;20043;-77
2022/07/19 08:44:51;;;;;;;6.85;2.28;;;26.70;61.20;;;;;;5039042;28;20037;-77
2022/07/19 08:47:21;;;;;;;4.63;1.90;;;26.70;60.70;;;;;;5039007;28;20056;-77
2022/07/19 08:49:48;;;;;;;8.38;1.95;;;26.80;60.40;;;;;;5050143;28;20021;-78
2022/07/19 08:52:15;;;;;;;6.55;2.22;;;26.90;60.40;;;;;;5041150;28;20036;-78
2022/07/19 08:54:41;;;;;;;5.38;1.70;;;27.00;60.60;;;;;;5069430;28;20036;-87
2022/07/19 08:59:52;;;;;;;5.60;1.63;;;27.20;60.40;;;;;;5072813;28;20090;-85
2022/07/19 09:02:17;;;;;;;4.40;1.60;;;27.30;60.50;;;;;;5052588;28;20381;-86
2022/07/19 09:04:43;;;;;;;6.75;1.65;;;27.40;60.30;;;;;;5071945;28;20502;-88
2022/07/19 09:07:09;;;;;;;6.60;1.83;;;27.50;59.90;;;;;;5073452;28;20024;-90
2022/07/19 09:09:36;;;;;;;5.68;1.90;;;27.60;59.60;;;;;;5073351;28;20025;-86
2022/07/19 09:12:03;;;;;;;8.65;2.03;;;27.60;59.10;;;;;;5054864;28;20029;-82
2022/07/19 09:14:35;;;;;;;5.72;1.63;;;27.70;58.90;;;;;;5025155;28;20017;-83
2022/07/19 09:17:09;;;;;;;7.85;1.58;;;27.70;58.80;;;;;;5064119;28;20489;-82
2022/07/19 09:19:47;;;;;;;4.82;1.77;;;27.80;58.70;;;;;;5073155;28;20020;-83
2022/07/19 09:22:14;;;;;;;8.32;1.42;;;27.90;58.40;;;;;;5053796;28;20021;-83
2022/07/19 09:24:43;;;;;;;9.15;1.60;;;27.90;58.10;;;;;;5065781;28;20025;-82
2022/07/19 09:27:14;;;;;;;5.75;1.52;;;28.00;57.70;;;;;;5062101;28;20021;-82
2022/07/19 09:29:42;;;;;;;3.60;1.42;;;28.00;57.50;;;;;;5067797;28;20017;-81
2022/07/19 09:32:11;;;;;;;7.10;1.63;;;28.10;57.30;;;;;;5061032;28;20020;-82
2022/07/19 09:34:49;;;;;;;4.90;1.45;;;28.20;57.10;;;;;;5058888;28;20024;-83
2022/07/19 09:37:18;;;;;;;3.17;1.13;;;28.20;56.90;;;;;;5055058;28;20465;-87
2022/07/19 09:39:47;;;;;;;6.40;1.48;;;28.30;56.80;;;;;;5053306;28;20020;-86
2022/07/19 09:42:14;;;;;;;7.55;1.25;;;28.40;56.80;;;;;;5058133;28;20031;-83
2022/07/19 09:44:40;;;;;;;4.15;1.98;;;28.40;56.70;;;;;;5072862;28;20056;-84
2022/07/19 09:47:06;;;;;;;7.63;1.73;;;28.50;56.30;;;;;;5055557;28;20060;-84
2022/07/19 09:49:32;;;;;;;4.88;1.83;;;28.60;56.10;;;;;;5067293;28;20056;-83
2022/07/19 09:51:58;;;;;;;7.10;1.52;;;28.70;55.90;;;;;;5076465;28;20048;-84
2022/07/19 09:54:26;;;;;;;5.28;1.70;;;28.80;55.90;;;;;;5053275;28;20060;-83
2022/07/19 09:56:53;;;;;;;8.88;1.40;;;28.80;55.80;;;;;;5056699;28;20021;-86
2022/07/19 09:59:20;;;;;;;4.22;1.45;;;28.90;55.60;;;;;;5056958;28;20078;-84
2022/07/19 10:01:49;;;;;;;6.80;1.42;;;29.00;55.40;;;;;;5057695;28;20028;-83
2022/07/19 10:04:18;;;;;;;4.32;1.90;;;29.10;55.20;;;;;;5048624;28;20036;-83
2022/07/19 10:06:45;;;;;;;5.88;1.30;;;29.20;54.80;;;;;;5056418;28;20029;-85
2022/07/19 10:09:13;;;;;;;3.50;1.52;;;29.30;54.60;;;;;;5050200;28;20034;-86
2022/07/19 10:11:39;;;;;;;4.53;1.55;;;29.40;54.40;;;;;;5052995;28;20024;-84
2022/07/19 10:14:06;;;;;;;3.90;1.38;;;29.40;54.10;;;;;;5053950;28;20021;-86
2022/07/19 10:16:53;;;;;;;3.50;1.13;;;29.50;54.00;;;;;;5071832;28;20388;-84
2022/07/19 10:19:21;;;;;;;3.50;1.20;;;29.60;53.70;;;;;;5050763;28;20114;-85
2022/07/19 10:21:48;;;;;;;7.85;1.88;;;29.70;53.50;;;;;;5047741;28;20032;-87
2022/07/19 10:24:14;;;;;;;9.60;1.55;;;29.70;53.40;;;;;;5056058;28;20028;-84
2022/07/19 10:26:42;;;;;;;4.53;1.38;;;29.90;53.40;;;;;;5055104;28;20033;-83
2022/07/19 10:29:17;;;;;;;3.72;1.10;;;29.90;53.00;;;;;;5056126;28;20075;-86
2022/07/19 10:32:01;;;;;;;7.35;1.10;;;30.10;52.60;;;;;;5044468;28;20088;-85
2022/07/19 10:34:51;;;;;;;;;;;30.10;52.40;;;;;;5071575;28;20051;-86
2022/07/19 10:37:13;;;;;;;10.07;1.40;;;30.30;52.20;;;;;;5050330;28;19909;-87
2022/07/19 10:39:39;;;;;;;5.70;1.30;;;30.30;52.20;;;;;;5052396;28;20384;-85
2022/07/19 10:42:06;;;;;;;4.38;1.30;;;30.50;52.00;;;;;;5053901;28;20033;-85
2022/07/19 10:44:33;;;;;;;4.90;1.25;;;30.60;51.30;;;;;;5049929;28;20068;-85
2022/07/19 10:46:58;;;;;;;4.32;1.55;;;30.80;50.50;;;;;;5053933;28;20038;-85
2022/07/19 10:49:59;;;;;;;7.43;2.30;;;31.00;50.10;;;;;;5077915;28;20021;-86
2022/07/19 10:52:28;;;;;;;4.00;1.50;;;31.20;49.20;;;;;;5057661;28;20060;-86
2022/07/19 10:55:25;;;;;;;7.15;1.45;;;31.50;49.40;;;;;;5052950;28;20049;-84
2022/07/19 10:57:52;;;;;;;4.07;1.45;;;31.60;49.00;;;;;;5062115;28;20112;-86
2022/07/19 11:00:24;;;;;;;5.97;1.20;;;31.90;49.00;;;;;;5061926;28;20074;-82
2022/07/19 11:02:51;;;;;;;2.50;1.17;;;32.10;48.30;;;;;;5049581;28;20108;-87
2022/07/19 11:05:20;;;;;;;5.63;1.10;;;32.30;47.80;;;;;;5058001;28;20402;-85
2022/07/19 11:07:51;;;;;;;3.42;0.98;;;32.60;47.30;;;;;;5070532;28;20022;-82
2022/07/19 11:10:25;;;;;;;2.88;1.00;;;32.70;47.10;;;;;;5053567;28;20017;-85
2022/07/19 11:12:52;;;;;;;3.05;1.05;;;33.00;46.60;;;;;;5050634;28;20469;-85
2022/07/19 11:15:17;;;;;;;5.85;1.33;;;33.20;46.40;;;;;;5065617;28;20542;-88
2022/07/19 11:17:58;;;;;;;5.60;1.00;;;33.40;46.00;;;;;;5033857;28;20030;-88
2022/07/19 11:20:29;;;;;;;3.65;1.10;;;33.60;45.00;;;;;;5050548;28;20075;-87
2022/07/19 11:22:57;;;;;;;2.60;1.35;;;33.90;45.00;;;;;;5046980;28;20013;-85
2022/07/19 11:25:35;;;;;;;3.33;1.17;;;34.10;44.50;;;;;;5036385;28;20067;-85
2022/07/19 11:28:02;;;;;;;3.17;0.98;;;34.40;43.50;;;;;;5055882;28;20032;-87
2022/07/19 11:30:35;;;;;;;3.65;0.95;;;34.60;43.60;;;;;;5030668;28;20029;-85
2022/07/19 11:33:03;;;;;;;5.60;1.27;;;34.80;43.20;;;;;;5069572;28;20018;-86
2022/07/19 11:35:29;;;;;;;3.78;1.17;;;35.00;42.80;;;;;;5070083;28;20029;-82
2022/07/19 11:37:58;;;;;;;2.25;0.90;;;35.20;42.40;;;;;;5049926;28;20488;-83
2022/07/19 11:40:31;;;;;;;3.60;1.15;;;35.40;41.90;;;;;;5043772;28;20624;-88
2022/07/19 11:42:57;;;;;;;3.97;0.85;;;35.60;41.20;;;;;;5049102;28;20041;-87
2022/07/19 11:45:26;;;;;;;4.43;1.10;;;35.90;40.90;;;;;;5049386;28;20029;-84
2022/07/19 11:47:58;;;;;;;3.97;1.02;;;36.10;40.60;;;;;;5052270;28;20021;-85
2022/07/19 11:50:26;;;;;;;2.35;0.73;;;36.30;40.30;;;;;;5031628;28;20025;-88
2022/07/19 11:52:57;;;;;;;3.10;0.77;;;36.50;40.40;;;;;;5045459;28;20027;-88
2022/07/19 11:55:28;;;;;;;5.10;0.90;;;36.70;40.10;;;;;;5061401;28;20053;-88
2022/07/19 11:57:56;;;;;;;5.03;1.10;;;36.90;39.80;;;;;;5072015;28;20028;-87
2022/07/19 12:00:22;;;;;;;6.35;1.00;;;37.20;39.70;;;;;;5038878;28;20508;-87
2022/07/19 12:02:57;;;;;;;3.08;1.00;;;37.40;39.30;;;;;;5062421;28;20358;-87
2022/07/19 12:05:27;;;;;;;2.33;1.00;;;37.60;38.90;;;;;;5053724;28;20073;-89
2022/07/19 12:07:54;;;;;;;5.45;1.27;;;37.70;38.60;;;;;;5069324;28;20048;-83
2022/07/19 12:10:39;;;;;;;5.15;1.00;;;37.90;38.40;;;;;;5054882;28;20013;-83
2022/07/19 12:13:08;;;;;;;3.80;0.95;;;38.10;37.80;;;;;;5065098;28;20021;-86
2022/07/19 12:15:52;;;;;;;2.83;0.77;;;38.30;38.00;;;;;;5072235;28;20029;-84
2022/07/19 12:18:21;;;;;;;4.57;0.75;;;38.50;37.20;;;;;;5068459;28;20110;-83
2022/07/19 12:21:25;;;;;;;3.97;1.13;;;38.70;37.30;;;;;;5055389;28;20383;-88
2022/07/19 12:24:11;;;;;;;4.28;1.10;;;38.90;36.90;;;;;;5070772;28;20031;-86
2022/07/19 12:26:39;;;;;;;2.15;0.82;;;39.10;36.70;;;;;;5052742;28;20039;-87
2022/07/19 12:29:31;;;;;;;3.22;1.00;;;39.40;36.90;;;;;;5064869;28;20021;-88
2022/07/19 12:32:08;;;;;;;6.18;1.00;;;39.50;36.00;;;;;;5063202;28;20016;-89
2022/07/19 12:34:57;;;;;;;4.28;0.80;;;39.70;36.10;;;;;;5068770;28;20013;-88
2022/07/19 12:37:27;;;;;;;4.55;0.77;;;40.00;35.90;;;;;;5052409;28;20029;-86
2022/07/19 12:40:17;;;;;;;2.10;0.93;;;40.20;35.60;;;;;;5054891;28;20487;-83
2022/07/19 12:42:46;;;;;;;5.97;0.88;;;40.40;34.80;;;;;;5052154;28;20029;-88
2022/07/19 12:45:22;;;;;;;2.75;0.90;;;40.60;34.60;;;;;;5061534;28;20028;-86
2022/07/19 12:47:49;;;;;;;3.20;0.93;;;40.70;34.70;;;;;;5053977;28;20017;-88
2022/07/19 12:50:21;;;;;;;8.45;0.85;;;41.00;34.40;;;;;;5055498;28;20103;-88